Time;durP1;ratioP1;P1;durP2;ratioP2;P2;SDS_P1;SDS_P2;PMS_P1;PMS_P2;Temp;Humidity;BMP_temperature;BMP_pressure;BME280_temperature;BME280_humidity;BME280_pressure;Samples;Min_cycle;Max_cycle;Signal;HPM_P1;HPM_P2
2024/02/07 00:00:08;;;;;;;549.50;527.83;;;10.50;99.90;;;;;;5047507;28;20452;-93
2024/02/07 00:02:35;;;;;;;541.30;520.50;;;10.50;99.90;;;;;;5054733;28;20545;-94
2024/02/07 00:05:02;;;;;;;548.40;526.37;;;10.50;99.90;;;;;;5047428;28;20444;-93
2024/02/07 00:07:32;;;;;;;534.97;514.53;;;10.50;99.90;;;;;;5051475;28;20491;-94
2024/02/07 00:10:04;;;;;;;517.67;498.57;;;10.50;99.90;;;;;;5052152;28;20432;-94
2024/02/07 00:12:36;;;;;;;603.77;578.40;;;10.50;99.90;;;;;;5054204;28;20530;-95
2024/02/07 00:15:10;;;;;;;618.50;589.50;;;10.50;99.90;;;;;;5056493;28;20468;-93
2024/02/07 00:17:41;;;;;;;638.87;609.20;;;10.40;99.90;;;;;;5068979;28;20441;-94
2024/02/07 00:20:09;;;;;;;632.80;602.93;;;10.50;99.90;;;;;;5060276;28;20535;-94
2024/02/07 00:22:49;;;;;;;651.73;619.97;;;10.40;99.90;;;;;;5060379;28;20494;-94
2024/02/07 00:25:16;;;;;;;661.20;627.93;;;10.40;99.90;;;;;;5061003;28;20451;-94
2024/02/07 00:27:43;;;;;;;639.17;608.10;;;10.40;99.90;;;;;;5060862;28;20439;-94
2024/02/07 00:30:11;;;;;;;611.17;582.07;;;10.50;99.90;;;;;;5059832;28;20474;-93
2024/02/07 00:32:38;;;;;;;628.47;598.40;;;10.50;99.90;;;;;;5058848;28;20603;-93
2024/02/07 00:35:05;;;;;;;619.20;590.50;;;10.40;99.90;;;;;;5056351;28;20478;-94
2024/02/07 00:37:32;;;;;;;633.60;602.80;;;10.50;99.90;;;;;;5064661;28;20474;-93
2024/02/07 00:40:00;;;;;;;596.00;569.33;;;10.50;99.90;;;;;;5060583;28;20456;-94
2024/02/07 00:42:29;;;;;;;612.07;583.70;;;10.60;99.90;;;;;;5056406;28;20455;-93
2024/02/07 00:44:57;;;;;;;555.87;532.63;;;10.60;99.90;;;;;;5057824;28;20444;-95
2024/02/07 00:47:24;;;;;;;564.70;541.33;;;10.60;99.90;;;;;;5060100;28;20462;-94
2024/02/07 00:49:51;;;;;;;556.00;532.93;;;10.60;99.90;;;;;;5060119;28;20523;-94
2024/02/07 00:52:18;;;;;;;595.27;567.57;;;10.60;99.90;;;;;;5067468;28;20494;-94
2024/02/07 00:54:45;;;;;;;561.20;537.87;;;10.60;99.90;;;;;;5059738;28;20428;-94
2024/02/07 00:57:13;;;;;;;560.43;535.90;;;10.70;99.90;;;;;;5059065;28;20440;-94
2024/02/07 00:59:40;;;;;;;528.03;506.47;;;10.60;99.90;;;;;;5069675;28;20491;-94
2024/02/07 01:02:08;;;;;;;599.13;572.47;;;10.70;99.90;;;;;;5063020;28;20478;-94
2024/02/07 01:04:36;;;;;;;601.50;573.90;;;10.50;99.90;;;;;;5059598;28;20467;-94
2024/02/07 01:07:03;;;;;;;587.27;561.27;;;10.60;99.90;;;;;;5059194;28;20478;-93
2024/02/07 01:09:29;;;;;;;555.37;531.27;;;10.60;99.90;;;;;;5060799;28;20523;-93
2024/02/07 01:11:56;;;;;;;586.67;559.37;;;10.60;99.90;;;;;;5064832;28;20463;-96
2024/02/07 01:14:26;;;;;;;608.50;580.63;;;10.60;99.90;;;;;;5059521;28;20433;-94
2024/02/07 01:16:52;;;;;;;606.53;578.43;;;10.70;99.90;;;;;;5058662;28;20471;-95
2024/02/07 01:19:20;;;;;;;611.77;582.70;;;10.60;99.90;;;;;;5067932;28;20432;-93
2024/02/07 01:21:47;;;;;;;637.90;605.90;;;10.60;99.90;;;;;;5067415;28;20486;-95
2024/02/07 01:24:15;;;;;;;652.77;620.57;;;10.50;99.90;;;;;;5067627;28;20462;-94
2024/02/07 01:26:44;;;;;;;666.57;633.83;;;10.50;99.90;;;;;;5066998;28;20508;-95
2024/02/07 01:29:11;;;;;;;720.37;681.47;;;10.40;99.90;;;;;;5059250;28;20464;-93
2024/02/07 01:32:00;;;;;;;700.87;664.63;;;10.30;99.90;;;;;;5057946;28;20506;-95
2024/02/07 01:34:26;;;;;;;690.27;655.70;;;10.30;99.90;;;;;;5066548;22;20917;-74
2024/02/07 01:36:54;;;;;;;720.30;682.63;;;10.40;99.90;;;;;;5060771;28;20490;-75
2024/02/07 01:39:22;;;;;;;722.27;680.97;;;10.40;99.90;;;;;;5062240;28;20973;-74
2024/02/07 01:41:58;;;;;;;716.50;675.53;;;10.30;99.90;;;;;;5054148;28;20447;-75
2024/02/07 01:44:25;;;;;;;666.00;631.80;;;10.30;99.90;;;;;;5051629;28;20457;-75
2024/02/07 01:46:53;;;;;;;667.63;631.33;;;10.40;99.90;;;;;;5040611;28;20802;-75
2024/02/07 01:49:21;;;;;;;663.90;629.43;;;10.50;99.90;;;;;;5050277;28;20526;-75
2024/02/07 01:51:48;;;;;;;697.90;658.50;;;10.50;99.90;;;;;;5049700;28;20591;-75
2024/02/07 01:54:15;;;;;;;741.60;699.70;;;10.30;99.90;;;;;;5041800;28;20462;-75
2024/02/07 01:56:43;;;;;;;721.67;678.43;;;10.40;99.90;;;;;;5053783;28;20494;-74
2024/02/07 01:59:10;;;;;;;726.83;681.87;;;10.30;99.90;;;;;;5046517;28;20458;-74
2024/02/07 02:01:38;;;;;;;742.87;699.00;;;10.30;99.90;;;;;;5044187;28;20462;-75
2024/02/07 02:04:05;;;;;;;747.37;701.80;;;10.30;99.90;;;;;;5053707;28;20486;-75
2024/02/07 02:06:33;;;;;;;788.63;740.77;;;10.30;99.90;;;;;;5053653;28;20453;-74
2024/02/07 02:09:00;;;;;;;743.57;700.07;;;10.20;99.90;;;;;;5039677;28;20547;-75
2024/02/07 02:11:32;;;;;;;743.37;698.17;;;10.30;99.90;;;;;;5050617;28;20477;-74
2024/02/07 02:13:59;;;;;;;729.63;687.13;;;10.30;99.90;;;;;;5047303;28;20480;-74
2024/02/07 02:16:26;;;;;;;703.93;665.47;;;10.40;99.90;;;;;;5041649;28;20974;-75
2024/02/07 02:18:53;;;;;;;701.80;664.40;;;10.40;99.90;;;;;;5052921;28;20542;-74
2024/02/07 02:21:26;;;;;;;689.37;653.27;;;10.30;99.90;;;;;;5052844;28;20451;-75
2024/02/07 02:24:23;;;;;;;682.53;647.67;;;10.40;99.90;;;;;;5048471;28;20883;-75
2024/02/07 02:27:08;;;;;;;705.90;668.20;;;10.40;99.90;;;;;;5025570;28;20436;-74
2024/02/07 02:29:42;;;;;;;708.80;671.10;;;10.30;99.90;;;;;;5035699;28;20448;-74
2024/02/07 02:32:10;;;;;;;646.83;614.87;;;10.40;99.90;;;;;;5052938;28;20455;-74
2024/02/07 02:34:39;;;;;;;663.13;630.33;;;10.40;99.90;;;;;;5033560;28;20460;-74
2024/02/07 02:37:06;;;;;;;688.47;653.37;;;10.20;99.90;;;;;;5038714;28;20491;-74
2024/02/07 02:39:33;;;;;;;655.00;622.50;;;10.20;99.90;;;;;;5052541;28;21276;-74
2024/02/07 02:42:00;;;;;;;664.00;629.80;;;10.20;99.90;;;;;;5052595;28;20451;-75
2024/02/07 02:44:28;;;;;;;664.53;630.90;;;10.10;99.90;;;;;;5052995;28;20512;-75
2024/02/07 02:47:00;;;;;;;681.00;644.27;;;10.20;99.90;;;;;;5047392;28;20459;-74
2024/02/07 02:49:26;;;;;;;667.20;632.70;;;10.10;99.90;;;;;;5042420;28;20452;-74
2024/02/07 02:51:53;;;;;;;669.50;634.83;;;10.10;99.90;;;;;;5052320;28;20927;-74
2024/02/07 02:54:20;;;;;;;714.30;674.83;;;10.10;99.90;;;;;;5044179;28;20824;-74
2024/02/07 02:56:47;;;;;;;722.67;680.63;;;10.00;99.90;;;;;;5044877;28;20479;-74
2024/02/07 02:59:14;;;;;;;757.67;711.67;;;10.00;99.90;;;;;;5036330;28;20452;-73
2024/02/07 03:01:41;;;;;;;729.50;687.43;;;9.90;99.90;;;;;;5041250;28;20458;-73
2024/02/07 03:04:15;;;;;;;758.83;711.80;;;10.00;99.90;;;;;;5048034;28;20541;-73
2024/02/07 03:06:58;;;;;;;786.23;738.13;;;9.90;99.90;;;;;;5035694;28;20454;-73
2024/02/07 03:09:26;;;;;;;772.87;727.03;;;9.90;99.90;;;;;;5043037;28;20452;-73
2024/02/07 03:11:53;;;;;;;774.73;728.23;;;9.90;99.90;;;;;;5040205;28;20547;-73
2024/02/07 03:14:20;;;;;;;783.00;734.83;;;9.90;99.90;;;;;;5040290;28;20457;-73
2024/02/07 03:16:47;;;;;;;878.60;823.83;;;9.90;99.90;;;;;;5035744;28;20838;-73
2024/02/07 03:19:16;;;;;;;854.07;799.90;;;9.90;99.90;;;;;;5052506;28;20466;-73
2024/02/07 03:21:43;;;;;;;836.17;784.57;;;9.90;99.90;;;;;;5048541;28;20823;-74
2024/02/07 03:24:10;;;;;;;807.63;758.73;;;9.90;99.90;;;;;;5039346;28;20479;-74
2024/02/07 03:26:37;;;;;;;861.13;810.03;;;9.80;99.90;;;;;;5051808;28;20466;-74
2024/02/07 03:29:04;;;;;;;834.97;784.30;;;9.90;99.90;;;;;;5051954;28;20465;-73
2024/02/07 03:31:32;;;;;;;827.93;776.73;;;9.90;99.90;;;;;;5041930;28;20832;-73
2024/02/07 03:33:59;;;;;;;811.57;762.37;;;9.80;99.90;;;;;;5045693;28;20491;-73
2024/02/07 03:36:28;;;;;;;796.67;746.77;;;9.80;99.90;;;;;;5035569;28;20480;-72
2024/02/07 03:38:55;;;;;;;760.40;715.83;;;9.80;99.90;;;;;;5038724;28;20510;-73
2024/02/07 03:41:22;;;;;;;734.13;692.73;;;9.80;99.90;;;;;;5039977;28;20460;-73
2024/02/07 03:43:49;;;;;;;751.10;707.27;;;9.80;99.90;;;;;;5031825;28;20835;-73
2024/02/07 03:46:16;;;;;;;767.67;722.67;;;9.80;99.90;;;;;;5031973;28;20563;-73
2024/02/07 03:48:43;;;;;;;654.20;620.30;;;9.80;99.90;;;;;;5040263;28;20459;-74
2024/02/07 03:51:15;;;;;;;707.20;666.33;;;9.80;99.90;;;;;;5047223;28;20451;-72
2024/02/07 03:53:44;;;;;;;666.13;629.93;;;9.80;99.90;;;;;;5051819;28;20475;-72
2024/02/07 03:56:12;;;;;;;641.67;605.37;;;9.80;99.90;;;;;;5044398;28;20480;-74
2024/02/07 03:58:41;;;;;;;671.77;632.73;;;9.80;99.90;;;;;;5042279;28;21008;-73
2024/02/07 04:01:10;;;;;;;632.37;595.80;;;9.80;99.90;;;;;;5045010;28;20460;-74
2024/02/07 04:03:37;;;;;;;579.50;549.37;;;9.80;99.90;;;;;;5031782;28;20526;-73
2024/02/07 04:06:05;;;;;;;621.80;587.80;;;9.80;99.90;;;;;;5039962;28;20455;-72
2024/02/07 04:08:34;;;;;;;651.53;613.93;;;9.80;99.90;;;;;;5041761;28;20458;-73
2024/02/07 04:11:04;;;;;;;621.50;588.73;;;9.80;99.90;;;;;;5051057;28;20451;-73
2024/02/07 05:16:14;;;;;;;533.90;510.63;;;5.40;99.90;;;;;;5054619;28;20493;-72
2024/02/07 05:18:41;;;;;;;522.77;499.17;;;5.30;99.90;;;;;;5054454;28;20549;-72
2024/02/07 05:21:10;;;;;;;535.47;509.93;;;5.30;99.90;;;;;;5039362;28;20458;-72
2024/02/07 05:23:37;;;;;;;538.70;511.60;;;5.20;99.90;;;;;;5053776;28;21025;-72
2024/02/07 05:26:04;;;;;;;531.73;506.27;;;5.20;99.90;;;;;;5054384;28;20462;-72
2024/02/07 05:28:33;;;;;;;514.20;490.10;;;5.20;99.90;;;;;;5054391;28;20462;-73
2024/02/07 05:31:00;;;;;;;528.40;502.80;;;5.20;99.90;;;;;;5040358;28;20551;-72
2024/02/07 05:33:28;;;;;;;530.53;504.33;;;5.20;99.90;;;;;;5052134;28;21008;-72
2024/02/07 05:35:55;;;;;;;560.73;532.73;;;5.10;99.90;;;;;;5054139;28;20467;-72
2024/02/07 05:38:22;;;;;;;562.07;532.67;;;5.20;99.90;;;;;;5037388;28;20480;-72
2024/02/07 05:40:49;;;;;;;567.87;538.57;;;5.20;99.90;;;;;;5041414;28;20460;-72
2024/02/07 05:43:15;;;;;;;545.17;517.33;;;5.00;99.90;;;;;;5042354;28;20475;-72
2024/02/07 05:45:42;;;;;;;551.80;523.70;;;5.00;99.90;;;;;;5042118;28;20478;-72
2024/02/07 05:48:09;;;;;;;565.70;535.03;;;5.00;99.90;;;;;;5040870;28;20451;-72
2024/02/07 05:50:37;;;;;;;551.87;522.97;;;5.00;99.90;;;;;;5053785;28;20451;-72
2024/02/07 05:53:04;;;;;;;543.47;514.67;;;5.10;99.90;;;;;;5047131;28;20479;-72
2024/02/07 05:55:31;;;;;;;563.33;531.33;;;5.10;99.90;;;;;;5042150;28;20462;-72
2024/02/07 05:57:57;;;;;;;589.07;553.40;;;5.00;99.90;;;;;;5033449;28;20482;-71
2024/02/07 06:00:24;;;;;;;573.07;538.00;;;5.00;99.90;;;;;;5042766;28;20457;-72
2024/02/07 06:02:51;;;;;;;598.37;559.20;;;5.00;99.90;;;;;;5040496;28;20471;-72
2024/02/07 06:05:19;;;;;;;616.83;579.33;;;5.10;99.90;;;;;;5049642;28;20454;-71
2024/02/07 06:07:47;;;;;;;610.60;573.03;;;5.20;99.90;;;;;;5037196;28;20444;-72
2024/02/07 06:10:13;;;;;;;632.60;594.20;;;5.10;99.90;;;;;;5052496;28;20451;-71
2024/02/07 06:12:44;;;;;;;625.03;589.03;;;5.00;99.90;;;;;;5032878;28;20475;-72
2024/02/07 06:15:11;;;;;;;637.17;598.87;;;5.10;99.90;;;;;;5040341;28;20447;-72
2024/02/07 06:17:40;;;;;;;673.17;628.43;;;5.10;99.90;;;;;;5036488;28;20479;-72
2024/02/07 06:20:08;;;;;;;676.63;633.30;;;5.10;99.90;;;;;;5046438;28;20452;-71
2024/02/07 06:22:35;;;;;;;668.07;625.67;;;5.10;99.90;;;;;;5043352;28;20471;-71
2024/02/07 06:25:04;;;;;;;688.90;644.47;;;5.10;99.90;;;;;;5053082;28;20455;-72
2024/02/07 06:27:31;;;;;;;689.57;645.57;;;5.10;99.90;;;;;;5053050;28;20451;-71
2024/02/07 06:29:58;;;;;;;698.63;653.00;;;5.10;99.90;;;;;;5053146;28;20473;-71
2024/02/07 06:32:25;;;;;;;682.80;639.80;;;5.10;99.90;;;;;;5052906;28;20471;-72
2024/02/07 06:34:51;;;;;;;690.70;644.23;;;5.10;99.90;;;;;;5048380;28;20464;-72
2024/02/07 06:37:18;;;;;;;706.30;659.10;;;5.10;99.90;;;;;;5041102;28;20490;-71
2024/02/07 06:39:45;;;;;;;626.33;588.63;;;5.00;99.90;;;;;;5052992;28;20822;-72
2024/02/07 06:42:13;;;;;;;583.03;547.27;;;4.90;99.90;;;;;;5037084;28;20468;-72
2024/02/07 06:44:40;;;;;;;559.97;527.27;;;4.70;99.90;;;;;;5052229;28;20945;-72
2024/02/07 06:47:07;;;;;;;565.00;532.80;;;4.60;99.90;;;;;;5045791;28;20959;-72
2024/02/07 06:49:36;;;;;;;523.83;495.37;;;4.70;99.90;;;;;;5032719;28;20455;-72
2024/02/07 06:52:03;;;;;;;519.80;492.33;;;4.30;99.90;;;;;;5046667;28;20884;-72
2024/02/07 06:54:30;;;;;;;582.10;547.90;;;4.30;99.90;;;;;;5042473;28;20479;-72
2024/02/07 06:56:56;;;;;;;594.20;560.30;;;4.20;99.90;;;;;;5051852;28;20479;-72
2024/02/07 06:59:25;;;;;;;606.80;570.27;;;4.30;99.90;;;;;;5042212;28;20456;-70
2024/02/07 07:01:51;;;;;;;621.07;583.60;;;4.20;99.90;;;;;;5044511;28;20455;-72
2024/02/07 07:04:18;;;;;;;607.97;572.97;;;4.30;99.90;;;;;;5052162;28;20974;-71
2024/02/07 07:06:45;;;;;;;580.47;548.33;;;4.30;99.90;;;;;;5052315;28;20451;-72
2024/02/07 07:09:12;;;;;;;629.57;592.30;;;4.20;99.90;;;;;;5052218;28;20455;-72
2024/02/07 07:11:39;;;;;;;645.03;605.57;;;4.20;99.90;;;;;;5052099;28;20459;-72
2024/02/07 07:14:05;;;;;;;667.87;624.87;;;4.30;99.90;;;;;;5051233;28;20998;-71
2024/02/07 07:16:33;;;;;;;673.67;631.87;;;4.30;99.90;;;;;;5049245;28;20447;-70
2024/02/07 07:19:01;;;;;;;682.87;637.37;;;4.20;99.90;;;;;;5037612;28;20462;-72
2024/02/07 07:21:28;;;;;;;695.23;649.33;;;4.30;99.90;;;;;;5051594;28;20463;-72
2024/02/07 07:23:55;;;;;;;656.90;614.33;;;4.30;99.90;;;;;;5051428;28;20859;-72
2024/02/07 07:26:23;;;;;;;681.53;637.73;;;4.30;99.90;;;;;;5035087;28;20885;-73
2024/02/07 07:28:50;;;;;;;674.47;628.50;;;4.20;99.90;;;;;;5051494;28;20448;-72
2024/02/07 07:31:17;;;;;;;667.77;625.97;;;4.30;99.90;;;;;;5051647;28;20451;-72
2024/02/07 07:33:45;;;;;;;692.60;647.70;;;4.20;99.90;;;;;;5048247;28;20520;-72
2024/02/07 07:36:16;;;;;;;703.73;658.33;;;4.20;99.90;;;;;;5039374;28;20977;-72
2024/02/07 07:38:43;;;;;;;675.13;632.77;;;4.20;99.90;;;;;;5051964;28;20482;-72
2024/02/07 07:41:10;;;;;;;691.90;647.77;;;4.30;99.90;;;;;;5051924;28;20463;-72
2024/02/07 07:43:37;;;;;;;700.47;654.00;;;4.10;99.90;;;;;;5051233;28;20486;-72
2024/02/07 07:46:05;;;;;;;692.83;646.90;;;4.30;99.90;;;;;;5051894;28;20455;-72
2024/02/07 07:48:31;;;;;;;698.40;651.23;;;4.30;99.90;;;;;;5041743;28;20494;-72
2024/02/07 07:51:00;;;;;;;712.63;665.33;;;4.30;99.90;;;;;;5040056;28;20452;-72
2024/02/07 07:53:27;;;;;;;701.10;653.17;;;4.40;99.90;;;;;;5030040;28;20898;-72
2024/02/07 07:55:54;;;;;;;714.70;666.80;;;4.30;99.90;;;;;;5039502;28;20494;-71
2024/02/07 07:58:22;;;;;;;732.77;683.17;;;4.30;99.90;;;;;;5039941;28;20920;-72
2024/02/07 08:00:49;;;;;;;723.57;676.73;;;4.30;99.90;;;;;;5051307;28;20455;-73
2024/02/07 08:03:16;;;;;;;737.60;688.77;;;4.40;99.90;;;;;;5035051;28;20849;-72
2024/02/07 08:05:42;;;;;;;722.47;674.60;;;4.30;99.90;;;;;;5050937;28;20462;-73
2024/02/07 08:08:11;;;;;;;732.50;683.13;;;4.40;99.90;;;;;;5050919;28;20946;-72
2024/02/07 08:10:38;;;;;;;748.30;698.60;;;4.50;99.90;;;;;;5049731;28;20465;-72
2024/02/07 08:13:05;;;;;;;700.37;654.57;;;4.50;99.90;;;;;;5050434;28;20479;-72
2024/02/07 08:15:32;;;;;;;667.23;624.87;;;4.50;99.90;;;;;;5032345;28;20475;-72
2024/02/07 08:17:58;;;;;;;637.27;598.53;;;4.30;99.90;;;;;;5048962;28;20505;-72
2024/02/07 08:20:25;;;;;;;667.70;624.57;;;4.20;99.90;;;;;;5048859;28;20837;-72
2024/02/07 08:22:52;;;;;;;674.60;631.70;;;4.40;99.90;;;;;;5049331;28;20892;-72
2024/02/07 08:25:21;;;;;;;729.17;679.30;;;4.30;99.90;;;;;;5049467;28;20509;-72
2024/02/07 08:27:48;;;;;;;706.77;660.07;;;4.50;99.90;;;;;;5033637;28;20450;-72
2024/02/07 08:30:17;;;;;;;696.10;649.40;;;4.30;99.90;;;;;;5051445;28;20554;-72
2024/02/07 08:32:44;;;;;;;694.93;648.00;;;4.40;99.90;;;;;;5034853;28;20478;-72
2024/02/07 08:35:11;;;;;;;666.83;623.10;;;4.30;99.90;;;;;;5051713;28;20459;-71
2024/02/07 08:37:38;;;;;;;703.23;655.37;;;4.30;99.90;;;;;;5054981;28;20478;-72
2024/02/07 08:40:07;;;;;;;640.47;600.10;;;4.30;99.90;;;;;;5055432;28;20828;-72
2024/02/07 08:42:37;;;;;;;660.60;620.00;;;4.20;99.90;;;;;;5044693;28;20555;-71
2024/02/07 08:45:05;;;;;;;703.73;656.77;;;4.10;99.90;;;;;;5035183;28;20444;-72
2024/02/07 08:47:32;;;;;;;648.23;608.50;;;4.20;99.90;;;;;;5037035;28;20539;-72
2024/02/07 08:49:58;;;;;;;732.17;681.57;;;4.10;99.90;;;;;;5054951;28;20451;-70
2024/02/07 08:52:25;;;;;;;696.50;651.20;;;4.30;99.90;;;;;;5054505;28;20467;-73
2024/02/07 08:54:52;;;;;;;649.70;610.13;;;4.30;99.90;;;;;;5050242;28;20960;-71
2024/02/07 08:57:19;;;;;;;616.00;579.07;;;4.10;99.90;;;;;;5043224;28;20451;-72
2024/02/07 08:59:47;;;;;;;601.67;567.90;;;4.20;99.90;;;;;;5038757;28;20451;-72
2024/02/07 09:02:14;;;;;;;641.57;602.10;;;4.30;99.90;;;;;;5054205;28;20467;-71
2024/02/07 09:04:41;;;;;;;660.77;618.40;;;4.30;99.90;;;;;;5054661;28;20458;-72
2024/02/07 09:07:07;;;;;;;644.00;604.47;;;4.40;99.90;;;;;;5054920;28;20455;-72
2024/02/07 09:09:34;;;;;;;671.20;627.50;;;4.30;99.90;;;;;;5054735;28;20450;-72
2024/02/07 09:12:01;;;;;;;693.43;646.17;;;4.30;99.90;;;;;;5054243;28;20890;-72
2024/02/07 09:14:28;;;;;;;739.87;688.10;;;4.40;99.90;;;;;;5054380;28;20455;-72
2024/02/07 09:16:56;;;;;;;762.07;708.67;;;4.70;99.90;;;;;;5054336;28;20852;-72
2024/02/07 09:19:22;;;;;;;800.63;744.80;;;4.70;99.90;;;;;;5036971;28;20980;-72
2024/02/07 09:21:49;;;;;;;750.17;700.10;;;4.80;99.90;;;;;;5041570;28;20208;-72
2024/02/07 09:24:16;;;;;;;738.30;688.77;;;4.80;99.90;;;;;;5034257;28;21055;-72
2024/02/07 09:26:43;;;;;;;677.63;634.07;;;4.80;99.90;;;;;;5042805;28;20695;-72
2024/02/07 09:29:09;;;;;;;718.87;670.77;;;4.70;99.90;;;;;;5042733;28;20488;-72
2024/02/07 09:31:37;;;;;;;740.27;689.73;;;4.80;99.90;;;;;;5055753;22;20466;-66
2024/02/07 09:34:05;;;;;;;758.70;706.50;;;5.10;99.90;;;;;;5023173;28;20473;-67
2024/02/07 09:36:38;;;;;;;741.07;689.87;;;5.20;99.90;;;;;;5024715;28;20453;-66
2024/02/07 09:39:04;;;;;;;611.40;578.20;;;5.30;99.90;;;;;;5026213;28;20483;-66
2024/02/07 09:41:33;;;;;;;612.80;579.80;;;5.00;99.90;;;;;;5024239;28;20536;-66
2024/02/07 09:44:03;;;;;;;599.87;569.27;;;4.90;99.90;;;;;;5022464;28;20468;-65
2024/02/07 09:46:37;;;;;;;658.57;622.70;;;4.70;99.90;;;;;;5022265;28;20460;-66
2024/02/07 09:49:07;;;;;;;725.13;678.63;;;4.70;99.90;;;;;;5019743;28;20449;-65
2024/02/07 09:51:34;;;;;;;742.03;693.73;;;4.80;99.90;;;;;;5017015;28;20890;-66
2024/02/07 09:54:03;;;;;;;663.53;626.23;;;4.90;99.90;;;;;;5022388;28;21014;-66
2024/02/07 09:56:31;;;;;;;602.07;572.03;;;4.80;99.90;;;;;;5021698;28;20445;-67
2024/02/07 09:59:00;;;;;;;606.50;574.63;;;4.80;99.90;;;;;;5026001;28;20480;-67
2024/02/07 10:01:28;;;;;;;615.13;583.90;;;4.60;99.90;;;;;;5020998;28;20533;-66
2024/02/07 10:03:57;;;;;;;664.80;628.23;;;4.40;99.90;;;;;;5023241;28;20896;-66
2024/02/07 10:06:27;;;;;;;709.40;667.40;;;4.30;99.90;;;;;;5010447;28;20445;-67
2024/02/07 10:08:55;;;;;;;698.30;657.07;;;4.40;99.90;;;;;;5022707;28;20814;-67
2024/02/07 10:11:23;;;;;;;686.92;644.70;;;4.30;99.90;;;;;;5018572;28;20957;-67
2024/02/07 10:13:50;;;;;;;684.87;644.57;;;4.20;99.90;;;;;;5020486;28;20717;-67
2024/02/07 10:16:18;;;;;;;706.83;663.23;;;4.20;99.90;;;;;;5013649;28;20956;-66
2024/02/07 10:18:47;;;;;;;701.03;657.37;;;4.30;99.90;;;;;;5013411;28;20481;-67
2024/02/07 10:21:13;;;;;;;699.80;657.53;;;4.20;99.90;;;;;;5013209;28;20457;-66
2024/02/07 10:23:42;;;;;;;718.30;674.03;;;4.30;99.90;;;;;;5013421;28;20483;-67
2024/02/07 10:26:10;;;;;;;664.03;625.73;;;4.20;99.90;;;;;;5013730;28;20832;-67
2024/02/07 10:28:37;;;;;;;656.63;620.03;;;4.20;99.90;;;;;;5021933;28;20460;-67
2024/02/07 10:31:05;;;;;;;644.30;610.40;;;4.10;99.90;;;;;;5013632;28;20456;-67
2024/02/07 10:33:36;;;;;;;615.00;583.87;;;4.10;99.90;;;;;;5021410;28;20492;-68
2024/02/07 10:36:03;;;;;;;664.57;627.37;;;4.00;99.90;;;;;;5013430;28;20495;-67
2024/02/07 10:38:33;;;;;;;685.83;647.33;;;3.90;99.90;;;;;;5013416;28;20512;-67
2024/02/07 10:41:01;;;;;;;737.23;690.60;;;4.10;99.90;;;;;;5019015;28;20448;-67
2024/02/07 10:43:29;;;;;;;755.17;704.20;;;4.20;99.90;;;;;;5015229;28;20558;-67
2024/02/07 10:46:00;;;;;;;758.27;707.07;;;4.50;99.90;;;;;;5013231;28;20987;-67
2024/02/07 10:48:28;;;;;;;734.67;685.00;;;4.70;99.90;;;;;;5013040;28;20832;-67
2024/02/07 10:50:56;;;;;;;729.03;680.77;;;4.60;99.90;;;;;;5013367;28;20449;-67
2024/02/07 10:53:23;;;;;;;736.53;686.53;;;4.70;99.90;;;;;;5021460;28;20475;-67
2024/02/07 10:55:50;;;;;;;752.90;701.47;;;4.70;99.90;;;;;;5012175;28;20457;-67
2024/02/07 10:58:22;;;;;;;754.70;702.77;;;4.70;99.90;;;;;;5012490;28;20861;-67
2024/02/07 11:00:51;;;;;;;732.60;683.70;;;4.80;99.90;;;;;;5005183;28;20453;-67
2024/02/07 11:03:19;;;;;;;727.73;677.97;;;4.80;99.90;;;;;;5020936;28;20571;-67
2024/02/07 11:05:45;;;;;;;686.57;643.67;;;4.80;99.90;;;;;;5012891;28;20956;-67
2024/02/07 11:08:12;;;;;;;712.23;665.03;;;4.70;99.90;;;;;;5013139;28;20445;-67
2024/02/07 11:10:41;;;;;;;725.63;677.27;;;4.80;99.90;;;;;;5012888;28;20468;-67
2024/02/07 11:13:10;;;;;;;744.20;693.60;;;4.80;99.90;;;;;;5021167;28;20477;-67
2024/02/07 11:15:39;;;;;;;756.93;705.97;;;4.70;99.90;;;;;;5011385;28;20515;-67
2024/02/07 11:18:08;;;;;;;760.23;707.20;;;4.90;99.90;;;;;;5012911;28;20445;-67
2024/02/07 11:20:35;;;;;;;760.73;707.27;;;5.00;99.90;;;;;;5012805;28;20559;-67
2024/02/07 11:23:07;;;;;;;716.07;669.53;;;5.10;99.90;;;;;;5012723;28;20483;-66
2024/02/07 11:25:36;;;;;;;683.60;643.70;;;5.10;99.90;;;;;;5012341;28;20458;-67
2024/02/07 11:28:03;;;;;;;702.97;662.23;;;5.10;99.90;;;;;;5012339;28;20457;-66
2024/02/07 11:30:30;;;;;;;721.43;677.00;;;5.10;99.90;;;;;;5012112;28;20957;-66
2024/02/07 11:32:59;;;;;;;726.57;681.90;;;5.10;99.90;;;;;;5012257;28;20491;-67
2024/02/07 11:35:26;;;;;;;734.57;688.30;;;5.10;99.90;;;;;;5013845;28;20456;-67
2024/02/07 11:37:53;;;;;;;728.07;682.40;;;5.20;99.90;;;;;;5019418;28;20457;-67
2024/02/07 11:40:23;;;;;;;731.13;684.63;;;5.20;99.90;;;;;;5012308;28;20979;-66
2024/02/07 11:42:50;;;;;;;725.50;679.50;;;5.20;99.90;;;;;;5011754;28;20483;-67
2024/02/07 11:45:18;;;;;;;661.30;628.20;;;5.20;99.90;;;;;;5020118;28;20548;-67
2024/02/07 11:47:52;;;;;;;672.40;639.10;;;5.10;99.90;;;;;;5003729;28;20463;-67
2024/02/07 11:50:21;;;;;;;665.03;632.63;;;5.00;99.90;;;;;;5011589;28;20452;-66
2024/02/07 11:52:49;;;;;;;659.03;629.13;;;4.70;99.90;;;;;;5011783;28;20555;-66
2024/02/07 11:55:17;;;;;;;679.63;646.77;;;4.60;99.90;;;;;;5011958;28;20453;-66
2024/02/07 11:57:45;;;;;;;695.90;662.57;;;4.40;99.90;;;;;;4999959;28;20453;-67
2024/02/07 12:00:15;;;;;;;737.03;697.30;;;4.20;99.90;;;;;;5013467;28;20476;-67
2024/02/07 12:02:46;;;;;;;744.60;702.70;;;4.20;99.90;;;;;;5015334;28;20476;-67
2024/02/07 12:05:14;;;;;;;752.40;707.87;;;4.30;99.90;;;;;;5023830;28;20460;-67
2024/02/07 12:07:43;;;;;;;762.63;714.90;;;4.40;99.90;;;;;;5020693;28;20459;-67
2024/02/07 12:10:10;;;;;;;707.17;669.27;;;4.50;99.90;;;;;;5023009;28;20449;-66
2024/02/07 12:12:37;;;;;;;721.77;683.00;;;4.30;99.90;;;;;;5023227;28;20465;-66
2024/02/07 12:15:05;;;;;;;710.07;672.40;;;4.30;99.90;;;;;;5020276;28;20444;-66
2024/02/07 12:17:32;;;;;;;698.77;663.80;;;4.20;99.90;;;;;;5025214;28;20443;-66
2024/02/07 12:20:00;;;;;;;712.63;675.33;;;4.10;99.90;;;;;;5021984;28;20530;-67
2024/02/07 12:22:28;;;;;;;749.17;704.47;;;4.00;99.90;;;;;;5024903;28;20480;-67
2024/02/07 12:25:00;;;;;;;718.53;680.13;;;4.20;99.90;;;;;;5024536;28;20498;-66
2024/02/07 12:27:27;;;;;;;719.03;681.00;;;4.20;99.90;;;;;;5023085;28;20540;-66
2024/02/07 12:29:55;;;;;;;742.13;699.47;;;4.20;99.90;;;;;;5013954;28;20968;-66
2024/02/07 12:32:23;;;;;;;747.13;701.90;;;4.30;99.90;;;;;;5026165;28;20479;-66
2024/02/07 12:34:50;;;;;;;722.27;681.97;;;4.40;99.90;;;;;;5023020;28;20448;-67
2024/02/07 12:37:19;;;;;;;739.77;697.77;;;4.40;99.90;;;;;;5019802;28;20461;-67
2024/02/07 12:39:48;;;;;;;721.33;682.77;;;4.50;99.90;;;;;;5015715;28;20480;-67
2024/02/07 12:42:18;;;;;;;699.00;662.97;;;4.40;99.90;;;;;;5026292;28;20471;-66
2024/02/07 12:44:45;;;;;;;715.47;677.87;;;4.40;99.90;;;;;;5017431;28;20897;-67
2024/02/07 12:47:13;;;;;;;740.83;701.30;;;4.30;99.90;;;;;;5019504;28;20453;-66
2024/02/07 12:49:40;;;;;;;719.13;684.10;;;4.50;99.90;;;;;;5020002;28;20891;-66
2024/02/07 12:52:07;;;;;;;747.80;708.43;;;4.40;99.90;;;;;;5017159;28;20450;-67
2024/02/07 12:54:34;;;;;;;735.10;697.30;;;4.50;99.90;;;;;;5018169;28;20829;-66
2024/02/07 12:57:00;;;;;;;743.70;704.30;;;4.50;99.90;;;;;;5020104;28;20448;-67
2024/02/07 12:59:30;;;;;;;733.97;697.10;;;4.50;99.90;;;;;;5017850;28;20473;-66
2024/02/07 13:01:57;;;;;;;713.40;679.10;;;4.50;99.90;;;;;;5026685;28;20454;-67
2024/02/07 13:04:24;;;;;;;751.33;712.90;;;4.50;99.90;;;;;;5024074;28;20453;-67
2024/02/07 13:06:51;;;;;;;742.37;704.77;;;4.60;99.90;;;;;;5023138;28;21033;-66
2024/02/07 13:09:18;;;;;;;718.70;684.13;;;4.60;99.90;;;;;;5023218;28;20823;-66
2024/02/07 13:11:44;;;;;;;754.20;715.67;;;4.60;99.90;;;;;;5015275;28;20476;-66
2024/02/07 13:14:11;;;;;;;735.27;700.37;;;4.60;99.90;;;;;;5023151;28;20468;-68
2024/02/07 13:16:39;;;;;;;750.70;713.70;;;4.60;99.90;;;;;;5025982;28;20452;-66
2024/02/07 13:19:06;;;;;;;741.40;704.30;;;4.70;99.90;;;;;;5026606;28;20476;-66
2024/02/07 13:21:33;;;;;;;721.57;686.67;;;4.80;99.90;;;;;;5021993;28;20452;-66